createdAt,value
2019-05-01T00:01:43.471Z,9.74
2019-05-01T00:04:13.671Z,9.76
2019-05-01T00:06:49.784Z,9.77
2019-05-01T00:09:19.013Z,9.75
2019-05-01T00:11:47.684Z,9.47
2019-05-01T00:14:16.306Z,9.58
2019-05-01T00:16:44.930Z,9.57
2019-05-01T00:19:13.660Z,9.49
2019-05-01T00:21:42.282Z,9.39
2019-05-01T00:24:10.844Z,9.48
2019-05-01T00:26:39.464Z,9.55
2019-05-01T00:29:08.204Z,9.60
2019-05-01T00:31:36.744Z,9.68
2019-05-01T00:34:05.478Z,9.82
2019-05-01T00:36:34.109Z,9.85
2019-05-01T00:39:02.743Z,9.87
2019-05-01T00:41:31.371Z,9.95
2019-05-01T00:44:00.009Z,10.06
2019-05-01T00:46:28.674Z,10.17
2019-05-01T00:48:57.323Z,10.32
2019-05-01T00:51:25.948Z,10.51
2019-05-01T00:53:54.651Z,10.62
2019-05-01T00:56:25.003Z,10.77
2019-05-01T00:59:04.520Z,10.71
2019-05-01T01:01:37.516Z,10.71
2019-05-01T01:04:06.337Z,10.59
2019-05-01T01:06:34.979Z,10.45
2019-05-01T01:09:05.097Z,10.32
2019-05-01T01:11:33.602Z,10.18
2019-05-01T01:14:02.233Z,10.15
2019-05-01T01:16:30.890Z,10.08
2019-05-01T01:18:59.521Z,10.05
2019-05-01T01:21:28.177Z,10.00
2019-05-01T01:23:57.474Z,9.94
2019-05-01T01:26:26.133Z,9.92
2019-05-01T01:28:54.772Z,9.87
2019-05-01T01:31:23.408Z,9.78
2019-05-01T01:33:52.039Z,9.74
2019-05-01T01:36:20.668Z,9.57
2019-05-01T01:38:49.308Z,9.48
2019-05-01T01:41:18.811Z,9.25
2019-05-01T01:43:49.325Z,8.99
2019-05-01T01:46:28.747Z,8.80
2019-05-01T01:48:57.720Z,8.85
2019-05-01T01:51:26.751Z,8.87
2019-05-01T01:53:55.479Z,8.80
2019-05-01T01:56:24.116Z,8.81
2019-05-01T01:58:53.948Z,8.81
2019-05-01T02:01:42.529Z,8.69
2019-05-01T02:04:18.939Z,8.63
2019-05-01T02:06:49.430Z,8.52
2019-05-01T02:09:18.052Z,8.60
2019-05-01T02:11:48.791Z,8.62
2019-05-01T02:14:17.541Z,8.69
2019-05-01T02:16:46.167Z,8.69
2019-05-01T02:19:14.794Z,8.74
2019-05-01T02:21:43.408Z,8.76
2019-05-01T02:24:12.038Z,8.76
2019-05-01T02:26:45.023Z,8.82
2019-05-01T02:29:33.955Z,8.74
2019-05-01T02:32:03.671Z,8.71
2019-05-01T02:34:33.906Z,8.67
2019-05-01T02:37:04.093Z,8.63
2019-05-01T02:39:34.122Z,8.71
2019-05-01T02:42:04.186Z,8.87
2019-05-01T02:44:41.563Z,8.85
2019-05-01T02:47:15.955Z,8.91
2019-05-01T02:49:59.624Z,8.74
2019-05-01T02:52:32.602Z,8.94
2019-05-01T02:57:41.132Z,9.00
2019-05-01T03:00:10.636Z,9.09
2019-05-01T03:02:40.664Z,9.15
2019-05-01T03:05:09.739Z,9.22
2019-05-01T03:07:39.570Z,9.34
2019-05-01T03:10:09.819Z,9.49
2019-05-01T03:12:42.184Z,9.58
2019-05-01T03:15:14.818Z,9.50
2019-05-01T03:17:55.623Z,9.52
2019-05-01T03:20:32.026Z,9.56
2019-05-01T03:23:21.518Z,9.56
2019-05-01T03:25:50.776Z,9.60
2019-05-01T03:28:19.758Z,9.51
2019-05-01T03:30:48.971Z,9.57
2019-05-01T03:33:19.644Z,9.68
2019-05-01T03:35:48.707Z,9.69
2019-05-01T03:38:18.706Z,9.71
2019-05-01T03:40:51.233Z,9.67
2019-05-01T03:43:20.605Z,9.57
2019-05-01T03:45:51.601Z,9.51
2019-05-01T03:48:20.412Z,9.47
2019-05-01T03:50:49.450Z,9.54
2019-05-01T03:53:18.488Z,9.60
2019-05-01T03:55:47.140Z,9.75
2019-05-01T03:58:15.922Z,9.84
2019-05-01T04:00:46.300Z,9.98
2019-05-01T04:03:22.947Z,10.10
2019-05-01T04:05:53.619Z,10.18
2019-05-01T04:08:24.559Z,10.25
2019-05-01T04:10:54.773Z,10.29
2019-05-01T04:13:23.704Z,10.16
2019-05-01T04:15:56.585Z,10.17
2019-05-01T04:18:26.913Z,10.24
2019-05-01T04:20:56.096Z,10.33
2019-05-01T04:23:25.290Z,10.42
2019-05-01T04:25:54.829Z,10.43
2019-05-01T04:28:25.199Z,10.49
2019-05-01T04:31:13.800Z,10.58
2019-05-01T04:33:47.175Z,10.58
2019-05-01T04:36:29.732Z,10.67
2019-05-01T04:38:58.905Z,10.87
2019-05-01T04:41:30.015Z,11.10
2019-05-01T04:44:00.096Z,11.39
2019-05-01T04:46:28.830Z,11.71
2019-05-01T04:48:57.504Z,11.95
2019-05-01T04:51:26.757Z,12.28
2019-05-01T04:53:56.006Z,12.34
2019-05-01T04:56:27.109Z,12.68
2019-05-01T04:58:56.341Z,12.88
2019-05-01T05:01:28.411Z,13.09
2019-05-01T05:03:57.728Z,13.09
2019-05-01T05:06:27.790Z,13.09
2019-05-01T05:08:56.944Z,13.00
2019-05-01T05:11:28.744Z,13.26
2019-05-01T05:14:13.298Z,13.10
2019-05-01T05:16:46.332Z,13.18
2019-05-01T05:19:15.066Z,13.23
2019-05-01T05:21:45.381Z,13.46
2019-05-01T05:24:14.618Z,13.63
2019-05-01T05:26:45.327Z,13.58
2019-05-01T05:29:17.257Z,13.88
2019-05-01T05:31:46.105Z,14.18
2019-05-01T05:34:18.227Z,14.05
2019-05-01T05:36:48.808Z,14.32
2019-05-01T05:39:23.231Z,14.80
2019-05-01T05:41:53.213Z,15.27
2019-05-01T05:44:22.761Z,15.58
2019-05-01T05:46:52.202Z,16.00
2019-05-01T05:52:04.777Z,16.79
2019-05-01T05:54:53.784Z,16.97
2019-05-01T05:57:29.807Z,16.59
2019-05-01T06:00:13.526Z,17.07
2019-05-01T06:02:46.797Z,17.36
2019-05-01T06:05:22.436Z,17.71
2019-05-01T06:08:11.266Z,17.70
2019-05-01T06:10:43.004Z,17.56
2019-05-01T06:13:18.011Z,17.48
2019-05-01T06:15:49.003Z,17.53
2019-05-01T06:18:24.471Z,17.72
2019-05-01T06:20:57.237Z,17.76
2019-05-01T06:23:34.012Z,17.87
2019-05-01T06:26:22.720Z,17.94
2019-05-01T06:28:55.996Z,18.14
2019-05-01T06:31:24.654Z,18.55
2019-05-01T06:33:54.973Z,18.97
2019-05-01T06:36:24.269Z,19.27
2019-05-01T06:38:53.581Z,19.59
2019-05-01T06:41:22.520Z,19.98
2019-05-01T06:43:57.105Z,20.37
2019-05-01T06:46:35.389Z,20.62
2019-05-01T06:49:11.047Z,20.72
2019-05-01T06:51:55.174Z,20.42
2019-05-01T06:54:26.920Z,20.58
2019-05-01T06:56:56.941Z,20.99
2019-05-01T06:59:31.312Z,21.30
2019-05-01T07:02:00.346Z,21.29
2019-05-01T07:04:32.227Z,21.95
2019-05-01T07:07:06.762Z,22.28
2019-05-01T07:09:34.017Z,23.35
2019-05-01T07:12:06.064Z,24.74
2019-05-01T07:14:35.221Z,26.65
2019-05-01T07:17:03.964Z,26.16
2019-05-01T07:19:53.025Z,26.73
2019-05-01T07:22:21.931Z,28.13
2019-05-01T07:24:50.985Z,31.97
2019-05-01T07:27:23.724Z,34.31
2019-05-01T07:30:04.233Z,33.84
2019-05-01T07:32:36.380Z,34.57
2019-05-01T07:35:03.946Z,36.59
2019-05-01T07:37:32.692Z,37.89
2019-05-01T07:40:02.641Z,38.91
2019-05-01T07:42:35.693Z,41.03
2019-05-01T07:45:13.158Z,39.70
2019-05-01T07:47:43.445Z,42.26
2019-05-01T07:51:10.455Z,42.21
2019-05-01T07:53:40.316Z,42.33
2019-05-01T07:56:10.118Z,37.84
2019-05-01T07:58:39.740Z,35.67
2019-05-01T08:01:18.352Z,35.10
2019-05-01T08:03:44.192Z,35.82
2019-05-01T08:06:16.079Z,37.77
2019-05-01T08:08:43.241Z,39.42
2019-05-01T08:11:12.882Z,42.28
2019-05-01T08:13:41.491Z,41.67
2019-05-01T08:16:10.211Z,42.65
2019-05-01T08:18:40.479Z,42.44
2019-05-01T08:21:10.736Z,43.11
2019-05-01T08:23:42.648Z,43.62
2019-05-01T08:26:10.318Z,43.77
2019-05-01T08:28:40.685Z,45.27
2019-05-01T08:31:28.999Z,47.79
2019-05-01T08:34:09.931Z,46.74
2019-05-01T08:36:42.704Z,46.15
2019-05-01T08:39:10.806Z,47.28
2019-05-01T08:41:39.580Z,48.28
2019-05-01T08:44:08.832Z,47.58
2019-05-01T08:46:50.975Z,47.72
2019-05-01T08:49:23.049Z,48.86
2019-05-01T08:51:51.779Z,47.40
2019-05-01T08:54:22.138Z,47.24
2019-05-01T08:56:53.130Z,47.24
2019-05-01T08:59:24.011Z,44.39
2019-05-01T09:02:07.916Z,40.78
2019-05-01T09:04:25.155Z,36.97
2019-05-01T09:06:57.296Z,34.80
2019-05-01T09:09:25.661Z,34.75
2019-05-01T09:11:54.739Z,35.79
2019-05-01T09:14:23.516Z,34.28
2019-05-01T09:16:52.627Z,33.45
2019-05-01T09:19:21.370Z,32.17
2019-05-01T09:21:50.153Z,30.92
2019-05-01T09:24:23.097Z,30.35
2019-05-01T09:26:52.452Z,29.91
2019-05-01T09:29:22.762Z,32.56
2019-05-01T09:31:51.606Z,33.80
2019-05-01T09:34:21.074Z,34.71
2019-05-01T09:36:49.987Z,37.14
2019-05-01T09:39:18.995Z,39.02
2019-05-01T09:41:48.864Z,41.12
2019-05-01T09:44:17.551Z,42.63
2019-05-01T09:46:46.182Z,43.94
2019-05-01T09:49:18.215Z,45.90
2019-05-01T09:51:47.536Z,46.10
2019-05-01T09:54:21.596Z,46.06
2019-05-01T09:56:51.850Z,47.46
2019-05-01T09:59:20.490Z,49.51
2019-05-01T10:01:49.198Z,49.95
2019-05-01T10:04:17.831Z,50.02
2019-05-01T10:06:52.401Z,50.65
2019-05-01T10:09:18.395Z,49.92
2019-05-01T10:11:47.030Z,46.24
2019-05-01T10:14:15.669Z,47.18
2019-05-01T10:16:44.343Z,49.48
2019-05-01T10:19:12.975Z,49.78
2019-05-01T10:21:41.615Z,51.13
2019-05-01T10:24:10.168Z,50.92
2019-05-01T10:26:40.452Z,46.43
2019-05-01T10:29:10.734Z,43.71
2019-05-01T10:31:50.217Z,42.79
2019-05-01T10:34:23.272Z,43.13
2019-05-01T10:36:54.575Z,45.82
2019-05-01T10:39:22.262Z,47.65
2019-05-01T10:41:51.005Z,48.72
2019-05-01T10:44:19.605Z,48.41
2019-05-01T10:46:48.233Z,44.79
2019-05-01T10:49:16.879Z,41.31
2019-05-01T10:51:45.507Z,41.95
2019-05-01T10:54:14.140Z,42.98
2019-05-01T10:56:42.777Z,41.98
2019-05-01T10:59:11.461Z,39.76
2019-05-01T11:01:50.756Z,36.92
2019-05-01T11:04:19.422Z,35.05
2019-05-01T11:06:48.126Z,32.71
2019-05-01T11:09:16.791Z,32.12
2019-05-01T11:11:45.481Z,31.68
2019-05-01T11:14:14.238Z,31.21
2019-05-01T11:16:42.875Z,30.50
2019-05-01T11:19:11.499Z,29.80
2019-05-01T11:21:40.167Z,29.17
2019-05-01T11:24:08.793Z,28.70
2019-05-01T11:26:37.424Z,28.26
2019-05-01T11:29:06.054Z,27.84
2019-05-01T11:31:52.490Z,27.45
2019-05-01T11:34:39.255Z,27.21
2019-05-01T11:37:24.684Z,27.04
2019-05-01T11:40:07.163Z,26.65
2019-05-01T11:42:35.800Z,26.43
2019-05-01T11:45:07.658Z,26.16
2019-05-01T11:47:36.286Z,25.95
2019-05-01T11:50:05.841Z,25.94
2019-05-01T11:52:34.491Z,25.82
2019-05-01T11:55:03.258Z,25.59
2019-05-01T11:57:31.892Z,25.46
2019-05-01T12:00:00.518Z,25.13
2019-05-01T12:02:29.115Z,24.92
2019-05-01T12:04:57.685Z,24.58
2019-05-01T12:07:26.320Z,24.55
2019-05-01T12:09:54.948Z,24.55
2019-05-01T12:12:25.230Z,24.79
2019-05-01T12:14:53.863Z,25.06
2019-05-01T12:17:30.274Z,25.00
2019-05-01T12:19:58.924Z,24.81
2019-05-01T12:22:27.550Z,25.09
2019-05-01T12:24:56.247Z,25.03
2019-05-01T12:27:24.885Z,25.30
2019-05-01T12:29:53.535Z,25.40
2019-05-01T12:32:22.171Z,25.20
2019-05-01T12:34:50.805Z,25.00
2019-05-01T12:37:21.202Z,25.00
2019-05-01T12:39:49.831Z,25.01
2019-05-01T12:42:20.111Z,24.89
2019-05-01T12:44:48.757Z,24.70
2019-05-01T12:47:22.236Z,24.65
2019-05-01T12:49:52.550Z,24.60
2019-05-01T12:52:31.535Z,24.49
2019-05-01T12:55:18.118Z,24.43
2019-05-01T12:57:46.703Z,24.48
2019-05-01T13:00:20.131Z,24.46
2019-05-01T13:02:48.799Z,24.36
2019-05-01T13:05:17.435Z,24.39
2019-05-01T13:07:46.004Z,24.28
2019-05-01T13:10:14.846Z,24.22
2019-05-01T13:12:43.479Z,24.01
2019-05-01T13:15:12.391Z,23.93
2019-05-01T13:17:41.055Z,23.99
2019-05-01T13:20:09.819Z,24.02
2019-05-01T13:22:38.445Z,23.82
2019-05-01T13:25:07.646Z,23.78
2019-05-01T13:27:37.938Z,23.82
2019-05-01T13:30:29.190Z,23.68
2019-05-01T13:32:59.618Z,23.58
2019-05-01T13:35:30.583Z,23.60
2019-05-01T13:37:58.723Z,23.59
2019-05-01T13:40:27.450Z,23.52
2019-05-01T13:42:56.167Z,23.39
2019-05-01T13:45:24.921Z,23.18
2019-05-01T13:47:54.589Z,23.21
2019-05-01T13:50:23.939Z,23.06
2019-05-01T13:52:52.642Z,22.97
2019-05-01T13:55:21.295Z,22.80
2019-05-01T13:57:49.916Z,22.81
2019-05-01T14:00:20.995Z,22.67
2019-05-01T14:02:49.672Z,22.46
2019-05-01T14:05:18.362Z,22.33
2019-05-01T14:07:47.069Z,22.08
2019-05-01T14:10:15.989Z,21.83
2019-05-01T14:12:44.622Z,21.59
2019-05-01T14:15:13.370Z,21.38
2019-05-01T14:17:42.097Z,21.28
2019-05-01T14:20:18.287Z,21.18
2019-05-01T14:22:48.605Z,21.18
2019-05-01T14:25:17.230Z,21.22
2019-05-01T14:27:45.889Z,21.28
2019-05-01T14:30:14.722Z,21.27
2019-05-01T14:32:43.344Z,21.23
2019-05-01T14:35:13.203Z,21.24
2019-05-01T14:37:41.840Z,21.17
2019-05-01T14:40:11.212Z,21.10
2019-05-01T14:42:39.964Z,21.07
2019-05-01T14:45:10.262Z,21.07
2019-05-01T14:47:38.961Z,20.91
2019-05-01T14:50:08.484Z,20.72
2019-05-01T14:52:37.122Z,20.69
2019-05-01T14:55:08.602Z,20.62
2019-05-01T14:57:37.209Z,20.67
2019-05-01T15:00:07.705Z,20.61
2019-05-01T15:02:36.366Z,20.62
2019-05-01T15:05:07.553Z,20.65
2019-05-01T15:07:43.444Z,20.65
2019-05-01T15:10:06.969Z,20.68
2019-05-01T15:12:35.654Z,20.68
2019-05-01T15:15:10.573Z,20.59
2019-05-01T15:17:40.834Z,20.57
2019-05-01T15:20:09.744Z,20.36
2019-05-01T15:22:38.450Z,20.23
2019-05-01T15:25:07.593Z,20.17
2019-05-01T15:27:36.236Z,20.19
2019-05-01T15:30:06.863Z,20.22
2019-05-01T15:32:35.484Z,20.24
2019-05-01T15:35:05.051Z,20.14
2019-05-01T15:37:35.272Z,20.00
2019-05-01T15:40:07.614Z,19.91
2019-05-01T15:42:37.891Z,19.83
2019-05-01T15:45:08.819Z,19.74
2019-05-01T15:47:38.979Z,19.57
2019-05-01T15:50:08.898Z,19.39
2019-05-01T15:52:39.223Z,19.23
2019-05-01T15:55:11.689Z,19.15
2019-05-01T15:57:41.408Z,19.09
2019-05-01T16:00:13.679Z,19.05
2019-05-01T16:02:43.317Z,18.95
2019-05-01T16:05:13.816Z,18.85
2019-05-01T16:07:46.107Z,18.81
2019-05-01T16:10:18.094Z,18.78
2019-05-01T16:12:51.512Z,18.86
2019-05-01T16:15:28.445Z,18.84
2019-05-01T16:17:57.072Z,18.84
2019-05-01T16:20:30.011Z,18.87
2019-05-01T16:22:58.667Z,18.80
2019-05-01T16:25:27.312Z,18.86
2019-05-01T16:27:56.961Z,18.83
2019-05-01T16:30:26.988Z,18.70
2019-05-01T16:32:56.435Z,18.58
2019-05-01T16:35:25.084Z,18.49
2019-05-01T16:37:55.170Z,18.32
2019-05-01T16:40:41.147Z,18.14
2019-05-01T16:43:11.336Z,18.02
2019-05-01T16:45:40.336Z,17.85
2019-05-01T16:48:10.072Z,17.74
2019-05-01T16:50:40.311Z,17.56
2019-05-01T16:53:09.216Z,17.45
2019-05-01T16:55:38.902Z,17.28
2019-05-01T16:58:11.597Z,17.23
2019-05-01T17:00:59.391Z,17.21
2019-05-01T17:03:46.491Z,17.16
2019-05-01T17:06:17.833Z,17.05
2019-05-01T17:08:51.493Z,16.85
2019-05-01T17:11:23.670Z,16.65
2019-05-01T17:13:52.490Z,16.54
2019-05-01T17:16:22.198Z,16.37
2019-05-01T17:18:52.439Z,16.30
2019-05-01T17:21:22.141Z,16.15
2019-05-01T17:23:51.582Z,16.03
2019-05-01T17:26:20.972Z,15.89
2019-05-01T17:28:51.038Z,15.77
2019-05-01T17:31:20.010Z,15.62
2019-05-01T17:33:50.796Z,15.56
2019-05-01T17:36:19.557Z,15.50
2019-05-01T17:38:50.049Z,15.46
2019-05-01T17:41:22.723Z,15.49
2019-05-01T17:43:50.920Z,15.49
2019-05-01T17:46:20.018Z,15.54
2019-05-01T17:48:50.553Z,15.46
2019-05-01T17:51:20.036Z,15.39
2019-05-01T17:53:51.309Z,15.30
2019-05-01T17:56:27.554Z,15.13
2019-05-01T17:58:52.689Z,15.01
2019-05-01T18:01:35.400Z,14.96
2019-05-01T18:04:15.363Z,14.86
2019-05-01T18:06:48.216Z,14.78
2019-05-01T18:09:18.227Z,14.67
2019-05-01T18:11:52.275Z,14.50
2019-05-01T18:14:18.407Z,14.52
2019-05-01T18:16:47.504Z,14.41
2019-05-01T18:19:16.305Z,14.41
2019-05-01T18:21:51.864Z,14.33
2019-05-01T18:24:35.230Z,14.35
2019-05-01T18:27:21.694Z,14.27
2019-05-01T18:29:54.935Z,14.19
2019-05-01T18:32:25.312Z,14.17
2019-05-01T18:34:54.399Z,14.06
2019-05-01T18:37:35.096Z,13.97
2019-05-01T18:40:03.804Z,13.98
2019-05-01T18:42:32.570Z,13.94
2019-05-01T18:45:02.453Z,13.87
2019-05-01T18:47:31.095Z,13.87
2019-05-01T18:49:59.712Z,13.90
2019-05-01T18:52:29.363Z,13.91
2019-05-01T18:54:59.137Z,13.88
2019-05-01T18:57:28.218Z,13.96
2019-05-01T18:59:57.034Z,13.97
2019-05-01T19:02:26.235Z,14.05
2019-05-01T19:04:55.953Z,14.08
2019-05-01T19:07:25.576Z,14.06
2019-05-01T19:09:54.204Z,14.13
2019-05-01T19:12:23.955Z,14.17
2019-05-01T19:14:52.964Z,14.12
2019-05-01T19:17:23.713Z,14.17
2019-05-01T19:19:53.309Z,14.20
2019-05-01T19:22:22.547Z,14.16
2019-05-01T19:24:51.191Z,14.20
2019-05-01T19:27:24.262Z,14.15
2019-05-01T19:29:52.575Z,14.17
2019-05-01T19:32:22.910Z,14.24
2019-05-01T19:34:52.457Z,14.16
2019-05-01T19:37:23.992Z,14.16
2019-05-01T19:39:54.995Z,14.17
2019-05-01T19:42:25.665Z,14.16
2019-05-01T19:44:56.137Z,14.16
2019-05-01T19:47:27.722Z,14.17
2019-05-01T19:50:06.493Z,14.15
2019-05-01T19:52:32.449Z,14.22
2019-05-01T19:55:06.451Z,14.20
2019-05-01T19:57:33.555Z,14.14
2019-05-01T20:00:02.639Z,14.08
2019-05-01T20:02:31.395Z,14.09
2019-05-01T20:05:00.426Z,14.10
2019-05-01T20:07:29.848Z,14.09
2019-05-01T20:09:59.432Z,14.14
2019-05-01T20:12:29.907Z,14.06
2019-05-01T20:14:59.492Z,14.07
2019-05-01T20:17:28.746Z,14.06
2019-05-01T20:19:58.407Z,14.01
2019-05-01T20:22:27.383Z,14.07
2019-05-01T20:24:56.359Z,13.99
2019-05-01T20:27:27.546Z,13.98
2019-05-01T20:29:56.401Z,14.06
2019-05-01T20:32:26.377Z,14.11
2019-05-01T20:34:55.399Z,14.17
2019-05-01T20:37:24.033Z,14.22
2019-05-01T20:39:53.121Z,14.22
2019-05-01T20:42:22.166Z,14.13
2019-05-01T20:45:04.011Z,14.15
2019-05-01T20:47:34.509Z,14.20
2019-05-01T20:49:52.311Z,14.14
2019-05-01T20:52:21.197Z,14.16
2019-05-01T20:54:50.798Z,14.17
2019-05-01T20:57:36.087Z,14.09
2019-05-01T21:00:11.335Z,14.02
2019-05-01T21:02:38.846Z,14.01
2019-05-01T21:05:22.946Z,13.92
2019-05-01T21:08:02.034Z,13.95
2019-05-01T21:10:36.073Z,13.87
2019-05-01T21:13:05.187Z,13.88
2019-05-01T21:15:34.307Z,13.85
2019-05-01T21:18:03.887Z,13.86
2019-05-01T21:20:33.937Z,13.80
2019-05-01T21:23:10.373Z,13.81
2019-05-01T21:25:35.017Z,13.77
2019-05-01T21:28:04.753Z,13.78
2019-05-01T21:30:34.352Z,13.74
2019-05-01T21:33:09.843Z,13.77
2019-05-01T21:35:35.992Z,13.77
2019-05-01T21:38:05.048Z,13.77
2019-05-01T21:40:40.735Z,13.72
2019-05-01T21:43:04.544Z,13.68
2019-05-01T21:45:33.176Z,13.70
2019-05-01T21:48:03.062Z,13.73
2019-05-01T21:50:33.562Z,13.70
2019-05-01T21:53:06.714Z,13.64
2019-05-01T21:55:34.807Z,13.66
2019-05-01T21:58:05.113Z,13.54
2019-05-01T22:00:35.804Z,13.47
2019-05-01T22:03:04.904Z,13.48
2019-05-01T22:05:34.771Z,13.38
2019-05-01T22:08:05.031Z,13.29
2019-05-01T22:10:34.154Z,13.25
2019-05-01T22:13:03.920Z,13.23
2019-05-01T22:15:34.507Z,13.18
2019-05-01T22:18:10.679Z,13.23
2019-05-01T22:20:43.677Z,13.14
2019-05-01T22:23:21.967Z,13.14
2019-05-01T22:25:52.134Z,13.22
2019-05-01T22:28:22.426Z,13.13
2019-05-01T22:30:55.832Z,13.11
2019-05-01T22:33:25.484Z,13.10
2019-05-01T22:35:54.449Z,13.08
2019-05-01T22:38:23.528Z,13.09
2019-05-01T22:41:05.534Z,13.04
2019-05-01T22:43:25.282Z,13.03
2019-05-01T22:45:56.453Z,12.99
2019-05-01T22:48:25.513Z,12.97
2019-05-01T22:50:55.841Z,12.93
2019-05-01T22:53:24.791Z,12.89
2019-05-01T22:55:57.190Z,12.91
2019-05-01T22:58:24.115Z,12.79
2019-05-01T23:00:54.422Z,12.85
2019-05-01T23:03:41.152Z,12.83
2019-05-01T23:06:11.649Z,12.84
2019-05-01T23:08:40.625Z,12.79
2019-05-01T23:11:19.729Z,12.78
2019-05-01T23:13:40.694Z,12.78
2019-05-01T23:16:09.688Z,12.84
2019-05-01T23:18:38.327Z,12.81
2019-05-01T23:21:09.792Z,12.75
2019-05-01T23:23:38.681Z,12.67
2019-05-01T23:26:11.570Z,12.58
2019-05-01T23:28:40.971Z,12.57
2019-05-01T23:31:09.651Z,12.47
2019-05-01T23:33:38.554Z,12.48
2019-05-01T23:36:08.214Z,12.53
2019-05-01T23:38:37.749Z,12.62
2019-05-01T23:41:06.322Z,12.61
2019-05-01T23:43:35.303Z,12.55
2019-05-01T23:46:05.907Z,12.59
2019-05-01T23:48:35.375Z,12.64
2019-05-01T23:51:04.485Z,12.58
2019-05-01T23:53:33.392Z,12.56
2019-05-01T23:56:02.150Z,12.58
2019-05-01T23:58:31.018Z,12.51
